Time;durP1;ratioP1;P1;durP2;ratioP2;P2;SDS_P1;SDS_P2;PMS_P1;PMS_P2;Temp;Humidity;BMP_temperature;BMP_pressure;BME280_temperature;BME280_humidity;BME280_pressure;Samples;Min_cycle;Max_cycle;Signal;HPM_P1;HPM_P2
2023/10/28 00:00:37;;;;;;;4.17;2.50;;;;;;;10.17;68.79;99388.31;5000292;28;96958;-52
2023/10/28 00:03:03;;;;;;;3.43;2.90;;;;;;;10.17;68.85;99390.31;4998154;28;96943;-52
2023/10/28 00:05:28;;;;;;;4.83;2.17;;;;;;;10.19;68.56;99390.50;5002255;28;97094;-52
2023/10/28 00:07:53;;;;;;;2.27;2.10;;;;;;;10.21;68.63;99390.69;5002013;28;98426;-52
2023/10/28 00:10:21;;;;;;;2.57;2.37;;;;;;;10.22;68.63;99397.69;5002595;28;97278;-52
2023/10/28 00:12:47;;;;;;;6.27;3.07;;;;;;;10.23;68.77;99397.16;5001910;28;97691;-52
2023/10/28 00:15:13;;;;;;;2.53;2.33;;;;;;;10.24;68.30;99392.38;4991205;28;98700;-52
2023/10/28 00:17:39;;;;;;;2.40;2.20;;;;;;;10.24;68.70;99404.16;4974155;28;97743;-52
2023/10/28 00:20:05;;;;;;;2.73;2.53;;;;;;;10.25;68.50;99404.91;4982837;28;96941;-52
2023/10/28 00:22:31;;;;;;;2.80;2.17;;;;;;;10.25;68.61;99399.38;4998834;28;97037;-52
2023/10/28 00:24:58;;;;;;;4.63;2.57;;;;;;;10.25;68.59;99411.19;5001430;28;98325;-52
2023/10/28 00:27:24;;;;;;;5.47;2.30;;;;;;;10.27;68.67;99407.88;5000832;28;96858;-52
2023/10/28 00:29:52;;;;;;;5.10;2.43;;;;;;;10.28;68.45;99409.34;5000916;28;96848;-52
2023/10/28 00:32:17;;;;;;;11.73;3.23;;;;;;;10.28;68.43;99414.88;4999665;28;98078;-52
2023/10/28 00:34:42;;;;;;;5.23;2.77;;;;;;;10.27;68.50;99418.91;5000440;28;97033;-52
2023/10/28 00:37:08;;;;;;;4.27;2.83;;;;;;;10.27;68.25;99418.91;5001481;28;96593;-52
2023/10/28 00:39:33;;;;;;;7.90;3.10;;;;;;;10.27;68.42;99414.13;5001329;28;96637;-52
2023/10/28 00:42:01;;;;;;;5.80;2.90;;;;;;;10.26;68.48;99417.47;5001076;28;97189;-52
2023/10/28 00:44:26;;;;;;;3.30;2.60;;;;;;;10.27;68.42;99413.41;5001343;28;97799;-52
2023/10/28 00:46:52;;;;;;;4.10;3.10;;;;;;;10.24;68.48;99415.22;5001450;28;97295;-52
2023/10/28 00:49:17;;;;;;;3.20;2.90;;;;;;;10.24;68.65;99411.75;5000637;28;97319;-52
2023/10/28 00:51:45;;;;;;;3.37;2.47;;;;;;;10.25;68.44;99413.19;5000490;28;97331;-52
2023/10/28 00:54:11;;;;;;;4.40;2.90;;;;;;;10.23;68.36;99408.22;5001083;28;96969;-52
2023/10/28 00:56:37;;;;;;;3.40;3.10;;;;;;;10.20;68.50;99408.56;5000164;28;96991;-52
2023/10/28 00:59:02;;;;;;;5.37;3.13;;;;;;;10.16;68.51;99397.84;5000682;28;96981;-52
2023/10/28 01:01:28;;;;;;;6.50;3.60;;;;;;;10.17;68.45;99401.38;5001550;28;96933;-52
2023/10/28 01:03:54;;;;;;;4.30;3.33;;;;;;;10.15;68.42;99398.41;5000478;28;96928;-52
2023/10/28 01:06:19;;;;;;;4.97;3.80;;;;;;;10.16;68.52;99392.34;5000427;28;97063;-52
2023/10/28 01:08:45;;;;;;;5.37;3.40;;;;;;;10.16;68.49;99403.38;4999479;28;97212;-52
2023/10/28 01:11:11;;;;;;;8.27;4.10;;;;;;;10.13;68.59;99398.94;4999936;28;109976;-52
2023/10/28 01:13:37;;;;;;;6.17;3.33;;;;;;;10.12;68.63;99393.97;4999159;28;97138;-52
2023/10/28 01:16:04;;;;;;;4.90;4.03;;;;;;;10.11;68.44;99389.72;4999538;28;97263;-52
2023/10/28 01:18:30;;;;;;;11.50;3.90;;;;;;;10.08;68.58;99393.56;4999712;28;97270;-52
2023/10/28 01:20:55;;;;;;;4.03;3.57;;;;;;;10.08;68.41;99396.34;5001179;28;97291;-52
2023/10/28 01:23:20;;;;;;;5.10;3.33;;;;;;;10.09;69.05;99397.78;5000340;28;97127;-52
2023/10/28 01:25:46;;;;;;;8.70;5.00;;;;;;;10.10;68.57;99410.34;5001465;28;96855;-52
2023/10/28 01:28:11;;;;;;;5.73;3.70;;;;;;;10.10;68.68;99399.28;5001727;28;97198;-51
2023/10/28 01:30:37;;;;;;;5.37;3.70;;;;;;;10.11;68.45;99403.56;4998798;28;97287;-52
2023/10/28 01:33:03;;;;;;;4.60;3.90;;;;;;;10.08;68.47;99396.34;5001322;28;99063;-52
2023/10/28 01:35:28;;;;;;;6.23;3.97;;;;;;;10.10;68.62;99400.03;5000153;28;97225;-53
2023/10/28 01:37:54;;;;;;;10.37;5.53;;;;;;;10.11;68.46;99400.78;5000756;28;97490;-53
2023/10/28 01:40:19;;;;;;;6.10;3.50;;;;;;;10.10;68.55;99402.81;4999309;28;98739;-53
2023/10/28 01:42:45;;;;;;;12.40;4.60;;;;;;;10.10;68.55;99400.03;4999864;28;98737;-53
2023/10/28 01:45:12;;;;;;;8.80;4.53;;;;;;;10.12;68.46;99405.75;4999283;28;97008;-53
2023/10/28 01:47:41;;;;;;;7.03;4.30;;;;;;;10.14;68.36;99408.72;4997797;28;96616;-53
2023/10/28 01:50:07;;;;;;;5.53;4.63;;;;;;;10.14;68.54;99419.03;5001212;28;98657;-53
2023/10/28 01:52:32;;;;;;;6.47;3.97;;;;;;;10.15;68.38;99415.00;5000414;28;100813;-53
2023/10/28 01:54:58;;;;;;;7.17;3.70;;;;;;;10.16;68.32;99413.69;5000395;28;96990;-53
2023/10/28 01:57:24;;;;;;;7.60;3.70;;;;;;;10.17;68.41;99409.66;4999500;28;97302;-53
2023/10/28 01:59:50;;;;;;;14.13;4.60;;;;;;;10.17;68.53;99409.66;4999948;28;97318;-53
2023/10/28 02:02:15;;;;;;;7.20;3.83;;;;;;;10.17;68.63;99410.41;5000809;28;97219;-53
2023/10/28 02:04:41;;;;;;;8.33;4.70;;;;;;;10.15;68.21;99412.22;4999756;28;102737;-53
2023/10/28 02:07:06;;;;;;;6.77;4.40;;;;;;;10.14;68.45;99417.00;5001006;28;97431;-53
2023/10/28 02:09:34;;;;;;;6.63;4.60;;;;;;;10.14;68.39;99421.78;4998021;28;108625;-53
2023/10/28 02:12:04;;;;;;;9.17;4.97;;;;;;;10.14;68.39;99413.50;4999359;28;97457;-53
2023/10/28 02:14:30;;;;;;;10.07;5.00;;;;;;;10.13;68.46;99412.03;4999636;28;97197;-52
2023/10/28 02:16:56;;;;;;;7.77;4.27;;;;;;;10.12;68.50;99419.56;4999957;28;97541;-53
2023/10/28 02:19:22;;;;;;;11.07;5.40;;;;;;;10.12;68.47;99408.53;5000776;28;96752;-53
2023/10/28 02:21:50;;;;;;;8.13;4.87;;;;;;;10.11;68.38;99417.38;5000256;28;98478;-53
2023/10/28 02:24:16;;;;;;;7.97;4.70;;;;;;;10.12;68.49;99408.53;4999919;28;97264;-52
2023/10/28 02:26:42;;;;;;;7.40;4.87;;;;;;;10.12;68.49;99416.81;5000385;28;97018;-52
2023/10/28 02:29:08;;;;;;;6.93;4.70;;;;;;;10.13;68.43;99421.03;4998170;28;97626;-53
2023/10/28 02:31:34;;;;;;;5.90;4.07;;;;;;;10.13;68.42;99421.03;4999254;28;97148;-52
2023/10/28 02:33:59;;;;;;;8.13;4.60;;;;;;;10.14;68.45;99422.53;4999936;28;96614;-52
2023/10/28 02:36:25;;;;;;;7.00;4.87;;;;;;;10.15;68.59;99426.75;5000085;28;96635;-53
2023/10/28 02:38:50;;;;;;;8.10;5.17;;;;;;;10.17;68.37;99431.78;4998299;28;96710;-53
2023/10/28 02:41:15;;;;;;;5.93;4.57;;;;;;;10.16;68.41;99428.25;5000749;28;102628;-53
2023/10/28 02:43:41;;;;;;;10.40;4.53;;;;;;;10.16;68.31;99422.00;4999487;28;97015;-53
2023/10/28 02:46:06;;;;;;;7.03;3.93;;;;;;;10.15;68.33;99426.03;4999335;28;97089;-53
2023/10/28 02:48:32;;;;;;;7.30;4.07;;;;;;;10.10;68.36;99416.63;4998165;28;98012;-53
2023/10/28 02:51:07;;;;;;;8.17;4.53;;;;;;;10.10;68.22;99422.16;5000213;28;97429;-52
2023/10/28 02:53:33;;;;;;;8.53;4.00;;;;;;;10.03;68.34;99415.28;4998519;28;97096;-53
2023/10/28 02:56:03;;;;;;;8.47;4.73;;;;;;;10.04;68.50;99414.00;5000176;28;96915;-53
2023/10/28 02:58:28;;;;;;;9.63;4.17;;;;;;;10.01;68.60;99415.09;4998287;28;97007;-53
2023/10/28 03:00:56;;;;;;;5.60;3.97;;;;;;;10.03;68.49;99425.59;4995456;28;97262;-53
2023/10/28 03:03:22;;;;;;;5.83;3.67;;;;;;;10.03;68.84;99420.81;4996321;28;97346;-53
2023/10/28 03:05:47;;;;;;;6.23;4.40;;;;;;;10.07;68.61;99439.81;4997871;28;97011;-53
2023/10/28 03:08:13;;;;;;;7.10;4.07;;;;;;;10.09;68.62;99430.97;4999829;28;97867;-53
2023/10/28 03:10:38;;;;;;;10.17;4.73;;;;;;;10.10;68.44;99433.19;4997729;28;97071;-53
2023/10/28 03:13:04;;;;;;;9.50;4.43;;;;;;;10.12;68.59;99436.16;4999950;28;103213;-53
2023/10/28 03:15:29;;;;;;;16.10;3.80;;;;;;;10.13;68.53;99434.84;4999492;28;97010;-53
2023/10/28 03:17:54;;;;;;;8.60;4.07;;;;;;;10.14;68.64;99433.59;4999081;28;96681;-52
2023/10/28 03:20:20;;;;;;;8.67;4.40;;;;;;;10.13;68.49;99428.63;5002504;28;97194;-53
2023/10/28 03:22:46;;;;;;;7.83;4.60;;;;;;;10.12;68.49;99425.09;5002896;28;97074;-53
2023/10/28 03:25:12;;;;;;;5.90;3.93;;;;;;;10.14;68.57;99424.56;5002469;28;97047;-53
2023/10/28 03:27:37;;;;;;;11.33;4.90;;;;;;;10.14;68.43;99421.78;5001419;28;97052;-53
2023/10/28 03:30:02;;;;;;;20.63;4.80;;;;;;;10.14;68.50;99427.31;5002139;28;111809;-53
2023/10/28 03:32:28;;;;;;;4.40;3.87;;;;;;;10.10;68.48;99427.69;5002193;28;96954;-53
2023/10/28 03:34:53;;;;;;;7.00;4.23;;;;;;;10.11;68.52;99428.41;5014135;28;97781;-52
2023/10/28 03:37:18;;;;;;;7.90;4.03;;;;;;;10.10;68.61;99413.84;5001641;28;99422;-52
2023/10/28 03:39:44;;;;;;;10.27;5.23;;;;;;;10.08;68.77;99421.19;5002447;28;109850;-52
2023/10/28 03:42:11;;;;;;;8.60;4.43;;;;;;;10.07;68.66;99428.75;5001304;28;97460;-52
2023/10/28 03:44:36;;;;;;;4.83;3.87;;;;;;;10.07;68.61;99428.75;4998913;28;97286;-53
2023/10/28 03:47:04;;;;;;;7.57;4.47;;;;;;;10.06;68.66;99430.03;5002532;28;97107;-52
2023/10/28 03:49:29;;;;;;;5.33;4.40;;;;;;;10.08;68.74;99432.25;5002139;28;97110;-52
2023/10/28 03:51:55;;;;;;;7.43;4.60;;;;;;;10.10;68.56;99435.22;5002276;28;97191;-53
2023/10/28 03:54:20;;;;;;;7.10;5.20;;;;;;;10.07;68.55;99433.53;5001912;28;100781;-53
2023/10/28 03:56:45;;;;;;;14.20;5.30;;;;;;;10.07;68.76;99430.75;5003122;28;112448;-52
2023/10/28 03:59:13;;;;;;;9.70;4.60;;;;;;;10.07;68.62;99434.28;5001721;28;97195;-53
2023/10/28 04:01:40;;;;;;;16.27;5.47;;;;;;;10.06;68.48;99435.56;5001125;28;97126;-52
2023/10/28 04:04:05;;;;;;;12.43;5.33;;;;;;;10.04;68.64;99430.56;5000334;28;97039;-53
2023/10/28 04:06:30;;;;;;;9.30;5.17;;;;;;;10.03;68.65;99428.34;5000576;28;111955;-53
2023/10/28 04:08:56;;;;;;;6.40;4.50;;;;;;;10.06;68.72;99440.34;5001954;28;102959;-53
2023/10/28 04:11:21;;;;;;;10.37;5.40;;;;;;;10.08;68.69;99440.53;5002453;28;102749;-52
2023/10/28 04:13:48;;;;;;;12.80;5.07;;;;;;;10.10;68.68;99432.44;5001269;28;96987;-52
2023/10/28 04:16:13;;;;;;;14.70;5.30;;;;;;;10.09;68.82;99420.66;5001981;28;98752;-52
2023/10/28 04:18:39;;;;;;;7.90;5.13;;;;;;;10.11;68.87;99433.94;5002176;28;96955;-52
2023/10/28 04:21:04;;;;;;;10.23;5.27;;;;;;;10.10;68.75;99422.16;5002476;28;109240;-52
2023/10/28 04:23:29;;;;;;;11.87;6.47;;;;;;;10.11;68.54;99420.13;4999271;28;107083;-52
2023/10/28 04:25:56;;;;;;;9.53;5.17;;;;;;;10.06;68.69;99418.25;4995939;28;105476;-53
2023/10/28 04:28:21;;;;;;;13.07;6.13;;;;;;;10.07;68.46;99428.75;5000775;28;97135;-52
2023/10/28 04:30:56;;;;;;;12.37;5.40;;;;;;;10.08;68.52;99421.94;5000695;28;96910;-53
2023/10/28 04:33:23;;;;;;;10.80;5.70;;;;;;;10.05;68.72;99431.31;4999899;28;97329;-52
2023/10/28 04:35:48;;;;;;;10.07;6.03;;;;;;;10.06;68.93;99432.81;5000319;28;97264;-52
2023/10/28 04:38:13;;;;;;;11.87;5.47;;;;;;;10.10;68.71;99443.50;5000021;28;103714;-52
2023/10/28 04:40:40;;;;;;;9.70;5.97;;;;;;;10.12;68.63;99443.69;5000567;28;106454;-53
2023/10/28 04:43:06;;;;;;;15.33;6.50;;;;;;;10.14;68.69;99438.38;4999882;28;97134;-53
2023/10/28 04:45:31;;;;;;;14.90;6.90;;;;;;;10.13;68.78;99439.66;5001134;28;97294;-52
2023/10/28 04:47:56;;;;;;;11.47;6.87;;;;;;;10.12;68.69;99441.69;5000830;28;96759;-52
2023/10/28 04:50:22;;;;;;;14.30;6.53;;;;;;;10.11;68.67;99439.47;5000326;28;106866;-53
2023/10/28 04:52:47;;;;;;;10.70;6.33;;;;;;;10.11;68.77;99439.47;5000142;28;96615;-52
2023/10/28 04:55:13;;;;;;;12.00;7.30;;;;;;;10.11;68.77;99440.19;5001688;28;97343;-53
2023/10/28 04:57:40;;;;;;;12.50;7.40;;;;;;;10.13;68.67;99450.72;4999973;28;97644;-52
2023/10/28 05:00:06;;;;;;;11.70;6.80;;;;;;;10.16;68.69;99444.09;5002284;28;96806;-52
2023/10/28 05:02:33;;;;;;;10.60;6.90;;;;;;;10.15;68.51;99448.88;5001831;28;97403;-52
2023/10/28 05:05:01;;;;;;;12.67;6.77;;;;;;;10.15;68.78;99442.63;5000724;28;97305;-53
2023/10/28 05:07:26;;;;;;;14.57;7.80;;;;;;;10.15;68.71;99434.34;4998882;28;96733;-52
2023/10/28 05:09:51;;;;;;;15.50;7.43;;;;;;;10.17;68.66;99437.28;5000444;28;97376;-53
2023/10/28 05:12:18;;;;;;;19.20;8.10;;;;;;;10.16;68.69;99436.53;5002669;28;97212;-53
2023/10/28 05:14:44;;;;;;;20.23;8.20;;;;;;;10.13;68.68;99445.19;5000914;28;97333;-52
2023/10/28 05:17:10;;;;;;;9.73;6.77;;;;;;;10.12;68.71;99444.44;4999816;28;97236;-53
2023/10/28 05:19:35;;;;;;;13.70;8.57;;;;;;;10.14;68.92;99449.44;5001592;28;97220;-52
2023/10/28 05:22:03;;;;;;;15.63;7.10;;;;;;;10.13;68.81;99456.25;5000083;28;96975;-53
2023/10/28 05:24:29;;;;;;;17.80;8.47;;;;;;;10.15;68.62;99445.41;5000491;28;97399;-52
2023/10/28 05:26:55;;;;;;;14.70;7.60;;;;;;;10.15;68.71;99450.91;4998612;28;96931;-53
2023/10/28 05:29:21;;;;;;;12.30;7.83;;;;;;;10.16;68.84;99446.84;5000603;28;97509;-53
2023/10/28 05:31:46;;;;;;;21.20;8.00;;;;;;;10.17;68.96;99446.34;5001490;28;96919;-53
2023/10/28 05:34:12;;;;;;;19.27;8.10;;;;;;;10.17;68.77;99454.63;4999221;28;100972;-53
2023/10/28 05:36:37;;;;;;;20.53;8.27;;;;;;;10.20;68.89;99463.84;4990627;28;97387;-52
2023/10/28 05:39:03;;;;;;;18.30;8.10;;;;;;;10.21;68.87;99462.56;5001483;28;96742;-52
2023/10/28 05:41:29;;;;;;;16.90;8.80;;;;;;;10.21;68.77;99465.31;5000607;28;96889;-53
2023/10/28 05:43:54;;;;;;;16.80;8.00;;;;;;;10.20;68.74;99464.56;5000192;28;97544;-52
2023/10/28 05:46:22;;;;;;;16.70;8.23;;;;;;;10.22;68.95;99469.56;4999395;28;97957;-52
2023/10/28 05:48:49;;;;;;;15.00;8.50;;;;;;;10.23;68.72;99468.28;4999852;28;97132;-52
2023/10/28 05:51:14;;;;;;;13.83;8.33;;;;;;;10.24;68.85;99467.03;5001236;28;97261;-53
2023/10/28 05:53:40;;;;;;;18.10;8.47;;;;;;;10.25;68.73;99474.75;4998535;28;96967;-53
2023/10/28 05:56:06;;;;;;;14.73;8.73;;;;;;;10.27;68.63;99468.69;5000976;28;96925;-52
2023/10/28 05:58:31;;;;;;;14.27;8.60;;;;;;;10.29;68.77;99474.41;5001414;28;97201;-52
2023/10/28 06:00:59;;;;;;;17.93;8.00;;;;;;;10.28;68.61;99481.22;4999701;28;97083;-53
2023/10/28 06:03:26;;;;;;;15.60;8.20;;;;;;;10.28;68.75;99484.00;4999090;28;97580;-52
2023/10/28 06:05:51;;;;;;;16.13;8.70;;;;;;;10.28;68.73;99481.22;4998795;28;98495;-52
2023/10/28 06:08:17;;;;;;;17.53;9.30;;;;;;;10.27;68.74;99488.03;5000240;28;96899;-53
2023/10/28 06:10:45;;;;;;;17.50;9.27;;;;;;;10.28;68.70;99492.28;4997337;28;96855;-53
2023/10/28 06:13:11;;;;;;;15.60;8.70;;;;;;;10.27;68.82;99480.47;5001057;28;97039;-52
2023/10/28 06:15:37;;;;;;;18.00;9.10;;;;;;;10.28;68.61;99486.75;5000773;28;98544;-52
2023/10/28 06:18:02;;;;;;;24.70;9.23;;;;;;;10.31;68.84;99488.41;4999595;28;96887;-52
2023/10/28 06:20:28;;;;;;;20.73;8.83;;;;;;;10.29;68.70;99490.97;5001061;28;96947;-52
2023/10/28 06:22:53;;;;;;;17.30;9.50;;;;;;;10.29;68.64;99496.50;4998668;28;98523;-53
2023/10/28 06:25:18;;;;;;;17.13;8.70;;;;;;;10.29;68.84;99493.75;5000123;28;109944;-53
2023/10/28 06:27:44;;;;;;;16.77;8.80;;;;;;;10.31;68.91;99510.53;5000818;28;97436;-52
2023/10/28 06:30:11;;;;;;;20.10;9.10;;;;;;;10.33;68.75;99505.94;5000706;28;97512;-52
2023/10/28 06:32:38;;;;;;;15.63;8.53;;;;;;;10.35;68.84;99508.16;5000510;28;97269;-52
2023/10/28 06:35:04;;;;;;;26.27;9.00;;;;;;;10.36;68.96;99510.41;4999654;28;97456;-52
2023/10/28 06:37:30;;;;;;;20.70;9.40;;;;;;;10.36;68.91;99510.41;5000433;28;97065;-52
2023/10/28 06:39:55;;;;;;;14.60;8.17;;;;;;;10.35;68.80;99517.19;5000066;28;96592;-52
2023/10/28 06:42:21;;;;;;;15.93;8.90;;;;;;;10.35;68.80;99521.97;5001340;28;97091;-52
2023/10/28 06:44:46;;;;;;;13.90;8.03;;;;;;;10.37;68.84;99522.94;4997964;28;97406;-52
2023/10/28 06:47:11;;;;;;;14.47;7.63;;;;;;;10.38;68.88;99527.19;4999867;28;97748;-52
2023/10/28 06:49:37;;;;;;;14.23;8.00;;;;;;;10.39;68.77;99514.84;5000035;28;105260;-52
2023/10/28 06:52:03;;;;;;;13.90;7.50;;;;;;;10.40;68.79;99524.63;4998038;28;97276;-52
2023/10/28 06:54:28;;;;;;;16.13;8.30;;;;;;;10.42;68.83;99524.06;5003978;28;97179;-52
2023/10/28 06:56:53;;;;;;;18.17;8.20;;;;;;;10.44;68.88;99527.03;5001780;28;98925;-52
2023/10/28 06:59:19;;;;;;;13.70;8.17;;;;;;;10.44;68.76;99529.78;5004444;28;97301;-52
2023/10/28 07:01:44;;;;;;;16.67;8.90;;;;;;;10.44;68.62;99533.31;5001560;28;96744;-52
2023/10/28 07:04:13;;;;;;;15.47;8.70;;;;;;;10.43;68.98;99531.09;5003594;28;98269;-52
2023/10/28 07:06:39;;;;;;;14.27;7.90;;;;;;;10.46;68.96;99535.53;5002425;28;97536;-52
2023/10/28 07:09:05;;;;;;;18.17;9.10;;;;;;;10.46;68.90;99543.81;5002509;28;96979;-52
2023/10/28 07:11:30;;;;;;;16.37;9.57;;;;;;;10.47;68.99;99545.31;5002934;28;96894;-52
2023/10/28 07:13:55;;;;;;;15.10;8.47;;;;;;;10.50;69.02;99544.25;5003404;28;97621;-52
2023/10/28 07:16:21;;;;;;;14.67;8.67;;;;;;;10.52;68.92;99547.19;5002214;28;97175;-52
2023/10/28 07:18:48;;;;;;;12.27;8.00;;;;;;;10.53;69.03;99551.44;5002558;28;97251;-53
2023/10/28 07:21:13;;;;;;;15.97;8.03;;;;;;;10.58;69.14;99547.78;5002989;28;98053;-52
2023/10/28 07:23:39;;;;;;;13.73;8.80;;;;;;;10.61;68.95;99549.44;5003313;28;97266;-52
2023/10/28 07:26:04;;;;;;;16.27;8.87;;;;;;;10.64;68.90;99559.44;5002164;28;97403;-52
2023/10/28 07:28:37;;;;;;;16.00;8.47;;;;;;;10.65;69.02;99550.59;5003324;28;97339;-52
2023/10/28 07:31:03;;;;;;;16.13;8.80;;;;;;;10.69;68.84;99553.03;4994463;28;99220;-53
2023/10/28 07:33:29;;;;;;;17.57;9.50;;;;;;;10.72;68.99;99562.97;5012188;22;98542;-79
2023/10/28 07:35:54;;;;;;;16.43;9.43;;;;;;;10.73;68.88;99570.00;5002785;28;100723;-79
2023/10/28 07:38:20;;;;;;;14.87;8.73;;;;;;;10.76;69.05;99558.59;5005684;28;97560;-79
2023/10/28 07:40:47;;;;;;;15.10;9.23;;;;;;;10.78;68.94;99560.84;5001373;28;97536;-79
2023/10/28 07:43:14;;;;;;;13.90;7.67;;;;;;;10.80;69.03;99577.66;5003679;28;97645;-79
2023/10/28 07:45:42;;;;;;;16.70;8.40;;;;;;;10.83;69.07;99573.78;5002589;28;98985;-79
2023/10/28 07:48:09;;;;;;;14.27;8.40;;;;;;;10.88;68.98;99574.91;5002290;28;97030;-79
2023/10/28 07:50:35;;;;;;;11.10;6.97;;;;;;;10.90;68.93;99572.34;5003225;28;97886;-79
2023/10/28 07:53:00;;;;;;;13.37;9.03;;;;;;;10.92;69.08;99595.44;5002313;28;98416;-80
2023/10/28 07:55:26;;;;;;;12.77;8.87;;;;;;;10.95;69.00;99602.66;5004165;28;97509;-79
2023/10/28 07:57:52;;;;;;;15.53;8.23;;;;;;;10.97;68.97;99605.63;5018192;28;97101;-79
2023/10/28 08:00:18;;;;;;;12.60;7.60;;;;;;;10.97;68.91;99621.47;5002417;28;97133;-79
2023/10/28 08:02:46;;;;;;;13.30;7.90;;;;;;;10.98;68.84;99598.06;5002143;28;97484;-79
2023/10/28 08:05:13;;;;;;;14.97;8.40;;;;;;;10.98;69.09;99612.63;5017886;27;97464;-79
2023/10/28 08:07:38;;;;;;;10.47;7.37;;;;;;;10.96;68.93;99603.41;5004165;28;96607;-79
2023/10/28 08:10:04;;;;;;;12.30;8.03;;;;;;;10.98;69.08;99607.06;5002899;28;98014;-79
2023/10/28 08:12:30;;;;;;;12.70;7.33;;;;;;;10.98;68.92;99603.59;5001580;28;97628;-80
2023/10/28 08:14:56;;;;;;;14.00;8.27;;;;;;;10.99;68.94;99607.81;5003244;28;97333;-79
2023/10/28 08:17:21;;;;;;;13.77;7.20;;;;;;;11.00;68.96;99604.53;5003444;28;97228;-79
2023/10/28 08:19:47;;;;;;;9.17;5.77;;;;;;;10.99;69.12;99619.63;4997739;28;99463;-79
2023/10/28 08:22:14;;;;;;;13.80;7.67;;;;;;;11.01;69.04;99614.31;4998775;28;99393;-79
2023/10/28 08:24:41;;;;;;;14.07;7.13;;;;;;;11.04;69.04;99609.72;4992377;28;97450;-79
2023/10/28 08:27:08;;;;;;;11.97;7.50;;;;;;;11.04;68.95;99613.22;4996116;28;97098;-79
2023/10/28 08:29:33;;;;;;;11.90;7.13;;;;;;;11.06;69.14;99629.28;5004990;28;100222;-79
2023/10/28 08:31:59;;;;;;;10.90;6.40;;;;;;;11.07;69.04;99656.41;5002121;28;98244;-80
2023/10/28 08:34:25;;;;;;;9.60;6.40;;;;;;;11.09;69.11;99628.91;4999567;28;96836;-79
2023/10/28 08:36:53;;;;;;;9.70;6.40;;;;;;;11.10;68.95;99622.13;5000170;28;97366;-79
2023/10/28 08:39:19;;;;;;;9.77;6.90;;;;;;;11.11;69.05;99628.41;5001050;28;99275;-79
2023/10/28 08:41:46;;;;;;;13.50;6.63;;;;;;;11.12;69.03;99650.00;5000539;28;100315;-79
2023/10/28 08:44:14;;;;;;;11.57;6.27;;;;;;;11.16;69.20;99633.78;5000426;28;97001;-79
2023/10/28 08:46:42;;;;;;;8.43;6.20;;;;;;;11.18;69.08;99631.19;5000095;28;97007;-80
2023/10/28 08:49:12;;;;;;;12.13;6.37;;;;;;;11.20;69.09;99634.16;5015748;28;99004;-79
2023/10/28 08:51:42;;;;;;;14.53;6.37;;;;;;;11.23;68.99;99644.16;5000466;28;99916;-79
2023/10/28 08:54:10;;;;;;;10.50;6.80;;;;;;;11.24;69.08;99634.53;5001963;28;96893;-79
2023/10/28 08:56:39;;;;;;;15.37;5.37;;;;;;;11.28;69.03;99634.22;4996155;28;98309;-79
2023/10/28 08:59:04;;;;;;;8.50;5.70;;;;;;;11.29;69.05;99636.44;4997556;28;98523;-79
2023/10/28 09:01:30;;;;;;;13.90;5.57;;;;;;;11.32;69.05;99657.50;5015443;28;108489;-79
2023/10/28 09:04:00;;;;;;;12.90;5.90;;;;;;;11.34;69.00;99632.75;4998587;28;97027;-80
2023/10/28 09:06:25;;;;;;;6.10;5.40;;;;;;;11.35;69.02;99639.78;4997745;28;98424;-79
2023/10/28 09:08:51;;;;;;;5.30;4.57;;;;;;;11.39;69.10;99656.06;5001119;28;96860;-80
2023/10/28 09:11:17;;;;;;;4.80;4.07;;;;;;;11.41;69.07;99650.72;5000767;28;96728;-79
2023/10/28 09:13:45;;;;;;;7.97;4.17;;;;;;;11.40;69.13;99646.44;5000729;28;97119;-80
2023/10/28 09:16:14;;;;;;;5.77;4.03;;;;;;;11.40;69.07;99663.81;4999274;28;101232;-80
2023/10/28 09:18:40;;;;;;;4.50;4.10;;;;;;;11.42;69.06;99652.16;5000641;28;98904;-80
2023/10/28 09:21:09;;;;;;;4.70;4.20;;;;;;;11.44;69.15;99655.88;4999396;28;97111;-79
2023/10/28 09:23:38;;;;;;;4.10;3.40;;;;;;;11.45;69.12;99664.94;5000260;28;97202;-79
2023/10/28 09:26:04;;;;;;;8.27;3.47;;;;;;;11.47;69.19;99690.06;4999166;28;97302;-79
2023/10/28 09:28:30;;;;;;;4.43;3.37;;;;;;;11.47;69.09;99682.50;4998173;28;99202;-80
2023/10/28 09:30:57;;;;;;;3.83;2.83;;;;;;;11.48;69.05;99683.97;5016034;27;100219;-79
2023/10/28 09:33:22;;;;;;;7.00;3.17;;;;;;;11.48;69.07;99681.19;4999031;28;97324;-79
2023/10/28 09:35:53;;;;;;;4.30;2.93;;;;;;;11.48;69.14;99672.88;5000628;28;100119;-79
2023/10/28 09:38:20;;;;;;;5.13;2.93;;;;;;;11.51;69.11;99680.13;4999832;28;100481;-79
2023/10/28 09:40:46;;;;;;;5.70;3.13;;;;;;;11.52;69.04;99678.84;5002109;28;97252;-80
2023/10/28 09:43:14;;;;;;;4.60;3.03;;;;;;;11.55;69.08;99688.06;4996843;28;97342;-80
2023/10/28 09:45:40;;;;;;;12.23;3.13;;;;;;;11.55;68.92;99682.53;4998787;28;97278;-79
2023/10/28 09:48:12;;;;;;;4.47;3.00;;;;;;;11.59;69.03;99687.72;4998076;28;98184;-80
2023/10/28 09:50:49;;;;;;;5.60;3.13;;;;;;;11.58;69.06;99689.00;4999715;28;97943;-80
2023/10/28 09:53:22;;;;;;;8.40;2.70;;;;;;;11.59;68.96;99684.97;4999759;28;97187;-80
2023/10/28 09:55:49;;;;;;;4.53;3.00;;;;;;;11.63;69.09;99683.31;5000942;28;97463;-80
2023/10/28 09:58:31;;;;;;;5.23;2.80;;;;;;;11.64;69.00;99704.19;4998991;28;100131;-80
2023/10/28 10:01:34;;;;;;;3.03;2.67;;;;;;;11.63;69.00;99688.13;4998992;28;97703;-80
2023/10/28 10:04:31;;;;;;;5.50;3.10;;;;;;;11.64;68.87;99686.81;4997280;28;97237;-80
2023/10/28 10:06:56;;;;;;;5.10;2.80;;;;;;;11.63;68.94;99697.16;5014289;28;96928;-80
2023/10/28 10:09:22;;;;;;;3.80;3.00;;;;;;;11.64;69.06;99700.66;4999807;28;99705;-80
2023/10/28 10:11:49;;;;;;;5.57;2.90;;;;;;;11.63;69.07;99691.63;4998936;28;98693;-79
2023/10/28 10:14:16;;;;;;;7.27;3.33;;;;;;;11.69;69.03;99694.97;5000312;28;97392;-80
2023/10/28 10:17:05;;;;;;;3.63;3.07;;;;;;;11.68;69.18;99699.03;4999237;28;97431;-80
2023/10/28 10:19:36;;;;;;;5.47;3.00;;;;;;;11.71;69.16;99703.47;5000672;28;99036;-80
2023/10/28 10:22:07;;;;;;;2.97;2.77;;;;;;;11.74;69.00;99696.84;4999294;28;97576;-80
2023/10/28 10:24:33;;;;;;;7.27;3.60;;;;;;;11.78;69.05;99690.94;4992348;28;96970;-80
2023/10/28 10:27:00;;;;;;;3.43;3.00;;;;;;;11.84;69.16;99685.97;5000155;28;97252;-80
2023/10/28 10:29:26;;;;;;;3.50;3.00;;;;;;;11.90;69.09;99686.53;5003060;28;97743;-79
2023/10/28 10:31:53;;;;;;;4.13;3.40;;;;;;;11.93;69.14;99697.31;5005635;28;97306;-79
2023/10/28 10:34:39;;;;;;;4.83;3.67;;;;;;;11.98;69.20;99693.66;5004127;28;97125;-79
2023/10/28 10:37:05;;;;;;;3.47;3.17;;;;;;;12.03;69.10;99683.69;5005060;28;97358;-80
2023/10/28 10:39:46;;;;;;;3.00;2.63;;;;;;;12.06;69.09;99677.03;5003182;28;97896;-79
2023/10/28 10:42:12;;;;;;;3.07;2.87;;;;;;;12.07;69.08;99692.38;5002689;28;98708;-79
2023/10/28 10:44:38;;;;;;;5.20;3.10;;;;;;;12.11;69.01;99684.44;5004071;28;97021;-79
2023/10/28 10:47:05;;;;;;;5.23;2.80;;;;;;;12.14;69.01;99672.97;5003471;28;97219;-79
2023/10/28 10:49:31;;;;;;;6.77;2.87;;;;;;;12.18;68.98;99670.59;5005861;28;98830;-79
2023/10/28 10:52:01;;;;;;;6.83;3.00;;;;;;;12.21;69.02;99683.38;5004158;28;98688;-79
2023/10/28 10:54:38;;;;;;;2.87;2.67;;;;;;;12.24;69.03;99684.28;5003332;28;97389;-79
2023/10/28 10:57:08;;;;;;;3.27;2.60;;;;;;;12.28;69.03;99676.34;5002154;28;97215;-79
2023/10/28 10:59:34;;;;;;;4.23;2.73;;;;;;;12.30;68.90;99670.25;5004146;28;99234;-79
2023/10/28 11:02:00;;;;;;;2.87;2.67;;;;;;;12.33;69.04;99672.66;5004349;28;97798;-79
2023/10/28 11:04:27;;;;;;;8.80;2.80;;;;;;;12.37;68.96;99669.53;5004063;28;97576;-80
2023/10/28 11:06:53;;;;;;;5.77;2.00;;;;;;;12.39;69.11;99680.81;5005071;28;97148;-78
2023/10/28 11:09:18;;;;;;;3.27;1.93;;;;;;;12.42;69.17;99680.47;5004419;28;97767;-79
2023/10/28 11:11:44;;;;;;;2.00;1.90;;;;;;;12.49;69.03;99670.66;5002868;28;99675;-79
2023/10/28 11:14:09;;;;;;;3.30;2.03;;;;;;;12.53;69.00;99671.03;5005848;28;99505;-79
2023/10/28 11:16:35;;;;;;;4.70;2.37;;;;;;;12.56;68.92;99678.22;5004528;28;97481;-78
2023/10/28 11:19:04;;;;;;;1.80;1.50;;;;;;;12.65;69.02;99666.59;5004896;28;98031;-79
2023/10/28 11:21:31;;;;;;;3.80;1.93;;;;;;;12.67;68.89;99673.06;5003924;28;97016;-79
2023/10/28 11:23:56;;;;;;;4.10;1.57;;;;;;;12.70;68.99;99674.00;5002904;28;97023;-79
2023/10/28 11:26:23;;;;;;;7.63;1.77;;;;;;;12.71;68.95;99673.44;5003245;28;96890;-78